Stevenage, United Kingdom
Current Conditions -  °F | °C
As of 10:50 PM on Tuesday 25 Nov 2014 (Local Time) from EGGW Reporting Station
Drizzle Drizzle  
Wind Chill: 39°   Ceiling: 4100
Heat Index: 43°   Visibility: 4mi
Dew Point: 43°   Wind: 6mph
Humidity: 100%   Direction: 30°NNE
Pressure: 30"   Gusts: NA
Location:  51.9°N, 0.2°W
Report Text: EGGW 252250Z 03005KT 6000 -DZ BKN041 06/06 Q1016
Loading
Personal Weather Stations






























Interactive Weather Map New forecast layout! Learn more

10-Day Weather Forecast

Advertisements
Track Severe Weather on mobile